ADDS METAR Data

Data at: 0510 UTC 20 Apr 2018

METAR for:KGHG (Marshfield Muni, MA, US)
Text:KGHG 200455Z AUTO VRB05G12KT 10SM CLR 04/00 A2983 RMK AO2
Temperature: 4.0°C ( 39°F)
Dewpoint: 0.0°C ( 32°F) [RH = 75%]
Pressure (altimeter):29.83 inches Hg (1010.2 mb)
Winds:variable direction winds at 6 MPH (5 knots; 2.6 m/s) gusting to 14 MPH (12 knots; 6.2 m/s)
Visibility:10 or more sm (16+ km)
Ceiling:at least 12,000 feet AGL
Clouds:sky clear below 12,000 feet AGL
QC Flag:automated observation with no human augmentation